Time;durP1;ratioP1;P1;durP2;ratioP2;P2;SDS_P1;SDS_P2;PMS_P1;PMS_P2;Temp;Humidity;BMP_temperature;BMP_pressure;BME280_temperature;BME280_humidity;BME280_pressure;Samples;Min_cycle;Max_cycle;Signal;HPM_P1;HPM_P2
2023/08/06 00:04:36;;;;;;;1.43;0.70;;;;;;;;;;20812324;28;20757;-73
2023/08/06 00:14:38;;;;;;;1.83;0.80;;;;;;;;;;20819161;28;20759;-73
2023/08/06 00:24:40;;;;;;;1.07;0.67;;;;;;;;;;20842450;28;20219;-73
2023/08/06 00:34:41;;;;;;;0.67;0.40;;;;;;;;;;20818078;28;20228;-73
2023/08/06 00:44:44;;;;;;;1.17;0.53;;;;;;;;;;20832337;28;20702;-73
2023/08/06 00:54:45;;;;;;;0.87;0.53;;;;;;;;;;20843634;28;20226;-73
2023/08/06 01:04:47;;;;;;;1.43;0.67;;;;;;;;;;20826301;28;20224;-73
2023/08/06 01:14:58;;;;;;;1.20;0.50;;;;;;;;;;20842148;28;20223;-72
2023/08/06 01:25:00;;;;;;;1.27;0.63;;;;;;;;;;20829789;28;20221;-73
2023/08/06 01:35:03;;;;;;;0.60;0.40;;;;;;;;;;20859518;22;20218;-72
2023/08/06 01:45:06;;;;;;;0.57;0.37;;;;;;;;;;20871712;28;20705;-73
2023/08/06 01:55:08;;;;;;;0.80;0.40;;;;;;;;;;20863630;28;20225;-72
2023/08/06 02:05:09;;;;;;;0.67;0.50;;;;;;;;;;20881254;28;20210;-72
2023/08/06 02:15:11;;;;;;;0.73;0.47;;;;;;;;;;20880056;28;20819;-72
2023/08/06 02:25:13;;;;;;;1.10;0.60;;;;;;;;;;20834651;28;20262;-72
2023/08/06 02:35:15;;;;;;;0.97;0.53;;;;;;;;;;20845316;28;20210;-71
2023/08/06 02:45:17;;;;;;;0.83;0.50;;;;;;;;;;20828091;28;20281;-72
2023/08/06 02:55:18;;;;;;;1.00;0.50;;;;;;;;;;20893559;28;20252;-72
2023/08/06 03:05:23;;;;;;;1.13;0.50;;;;;;;;;;20893487;28;20729;-73
2023/08/06 03:15:25;;;;;;;0.70;0.40;;;;;;;;;;20892646;28;20234;-73
2023/08/06 03:25:29;;;;;;;0.50;0.30;;;;;;;;;;20892464;28;20236;-72
2023/08/06 03:35:31;;;;;;;1.10;0.50;;;;;;;;;;20874597;28;20230;-73
2023/08/06 03:45:33;;;;;;;0.93;0.40;;;;;;;;;;20898135;28;20214;-72
2023/08/06 03:55:35;;;;;;;3.60;0.80;;;;;;;;;;20888576;28;20299;-72
2023/08/06 04:05:37;;;;;;;1.07;0.50;;;;;;;;;;20889448;28;20279;-72
2023/08/06 04:15:39;;;;;;;0.50;0.30;;;;;;;;;;20905587;28;20222;-73
2023/08/06 04:25:41;;;;;;;0.60;0.20;;;;;;;;;;20886500;28;20237;-72
2023/08/06 04:35:43;;;;;;;0.30;0.20;;;;;;;;;;20890202;28;20222;-72
2023/08/06 04:45:51;;;;;;;1.20;0.30;;;;;;;;;;20846261;28;20490;-72
2023/08/06 04:55:53;;;;;;;1.23;0.23;;;;;;;;;;20848330;28;20459;-73
2023/08/06 05:05:55;;;;;;;0.20;0.20;;;;;;;;;;20874243;28;20583;-71
2023/08/06 05:15:56;;;;;;;0.20;0.20;;;;;;;;;;20863524;28;20218;-70
2023/08/06 05:25:58;;;;;;;0.50;0.27;;;;;;;;;;20796000;28;20766;-70
2023/08/06 05:36:01;;;;;;;0.60;0.20;;;;;;;;;;20802949;28;20321;-70
2023/08/06 05:46:04;;;;;;;0.33;0.20;;;;;;;;;;20889865;28;20287;-70
2023/08/06 05:56:06;;;;;;;1.13;0.43;;;;;;;;;;20898645;28;20658;-69
2023/08/06 06:06:07;;;;;;;0.20;0.20;;;;;;;;;;20898038;28;20692;-70
2023/08/06 06:16:09;;;;;;;1.40;0.30;;;;;;;;;;20900907;28;20626;-69
2023/08/06 06:26:11;;;;;;;0.30;0.20;;;;;;;;;;20914367;28;20615;-70
2023/08/06 06:36:13;;;;;;;0.10;0.10;;;;;;;;;;20913701;28;20217;-69
2023/08/06 06:46:14;;;;;;;0.43;0.30;;;;;;;;;;20898038;28;20260;-70
2023/08/06 06:56:16;;;;;;;0.60;0.20;;;;;;;;;;20890204;28;20225;-75
2023/08/06 07:06:18;;;;;;;2.83;1.43;;;;;;;;;;20912135;28;20214;-74
2023/08/06 07:16:19;;;;;;;1.20;0.50;;;;;;;;;;20860374;28;20254;-72
2023/08/06 07:26:21;;;;;;;0.20;0.20;;;;;;;;;;20849897;28;20276;-75
2023/08/06 07:36:23;;;;;;;0.80;0.40;;;;;;;;;;20893414;22;20219;-77
2023/08/06 07:46:25;;;;;;;0.47;0.30;;;;;;;;;;20833199;28;20268;-77
2023/08/06 07:56:26;;;;;;;0.20;0.20;;;;;;;;;;20906856;28;20638;-77
2023/08/06 08:06:28;;;;;;;0.20;0.20;;;;;;;;;;20891273;28;20218;-77
2023/08/06 08:16:29;;;;;;;0.40;0.20;;;;;;;;;;20910694;28;20219;-78
2023/08/06 08:26:31;;;;;;;0.27;0.27;;;;;;;;;;20871362;28;20226;-78
2023/08/06 08:36:33;;;;;;;0.20;0.20;;;;;;;;;;20889913;28;20227;-79
2023/08/06 08:46:36;;;;;;;0.20;0.20;;;;;;;;;;20904126;28;20253;-77
2023/08/06 08:56:37;;;;;;;0.20;0.20;;;;;;;;;;20869736;28;20589;-78
2023/08/06 09:06:41;;;;;;;0.20;0.20;;;;;;;;;;20903983;28;20239;-78
2023/08/06 09:16:43;;;;;;;0.20;0.20;;;;;;;;;;20902594;28;20775;-78
2023/08/06 09:26:45;;;;;;;0.40;0.30;;;;;;;;;;20883105;28;20584;-76
2023/08/06 09:36:47;;;;;;;0.20;0.20;;;;;;;;;;20862619;28;20219;-78
2023/08/06 09:46:49;;;;;;;0.10;0.10;;;;;;;;;;20813492;28;20226;-78
2023/08/06 09:56:52;;;;;;;0.20;0.20;;;;;;;;;;20828959;28;20311;-77
2023/08/06 10:06:54;;;;;;;0.20;0.20;;;18.40;99.90;;;;;;20880354;28;20275;-77
2023/08/06 10:16:57;;;;;;;0.10;0.10;;;18.30;99.90;;;;;;20872051;28;20834;-77
2023/08/06 10:26:59;;;;;;;0.13;0.13;;;;;;;;;;20830494;28;20690;-77
2023/08/06 10:37:02;;;;;;;0.20;0.20;;;;;;;;;;20851981;28;20242;-77
2023/08/06 10:47:28;;;;;;;0.20;0.20;;;18.10;99.90;;;;;;20839522;28;20608;-77
2023/08/06 10:57:30;;;;;;;0.10;0.10;;;;;;;;;;20889194;28;20225;-77
2023/08/06 11:07:31;;;;;;;1.53;0.20;;;;;;;;;;20854133;28;20222;-77
2023/08/06 11:17:33;;;;;;;0.20;0.20;;;;;;;;;;20862548;28;20586;-77
2023/08/06 11:27:35;;;;;;;0.20;0.20;;;;;;;;;;20894810;28;20268;-77
2023/08/06 11:37:38;;;;;;;0.57;0.30;;;;;;;;;;20821435;28;20271;-77
2023/08/06 11:47:40;;;;;;;0.20;0.20;;;;;;;;;;20856603;28;20222;-76
2023/08/06 11:57:46;;;;;;;0.40;0.33;;;18.40;99.90;;;;;;20895859;28;20222;-77
2023/08/06 12:07:49;;;;;;;0.40;0.33;;;18.40;99.90;;;;;;20858155;28;20725;-77
2023/08/06 12:17:50;;;;;;;0.27;0.27;;;;;;;;;;20851675;28;20231;-77
2023/08/06 12:27:52;;;;;;;0.20;0.20;;;;;;;;;;20836194;28;20223;-78
2023/08/06 12:37:54;;;;;;;0.30;0.20;;;;;;;;;;20828043;28;20257;-77
2023/08/06 12:47:56;;;;;;;0.53;0.20;;;;;;;;;;20894931;28;20280;-78
2023/08/06 12:57:58;;;;;;;0.37;0.20;;;;;;;;;;20887276;28;20822;-77
2023/08/06 13:07:59;;;;;;;0.40;0.30;;;;;;;;;;20905962;28;20219;-77
2023/08/06 13:18:01;;;;;;;0.63;0.30;;;;;;;;;;20834873;28;20296;-78
2023/08/06 13:28:03;;;;;;;0.70;0.27;;;;;;;;;;20867394;28;20230;-77
2023/08/06 13:38:07;;;;;;;0.30;0.30;;;;;;;;;;20876909;22;20300;-72
2023/08/06 13:48:10;;;;;;;0.57;0.30;;;;;;;;;;20894746;28;20229;-71
2023/08/06 13:58:11;;;;;;;0.73;0.30;;;;;;;;;;20898597;28;20243;-73
2023/08/06 14:08:13;;;;;;;0.47;0.30;;;;;;;;;;20896842;28;20230;-71
2023/08/06 14:18:16;;;;;;;0.60;0.23;;;;;;;;;;20880488;28;20217;-71
2023/08/06 14:28:17;;;;;;;0.43;0.30;;;;;;;;;;20894219;28;20235;-71
2023/08/06 14:38:19;;;;;;;0.27;0.27;;;;;;;;;;20856463;28;20278;-72
2023/08/06 14:48:21;;;;;;;0.30;0.23;;;;;;;;;;20888022;28;20222;-70
2023/08/06 14:58:23;;;;;;;0.20;0.20;;;;;;;;;;20851717;28;20426;-70
2023/08/06 15:08:24;;;;;;;4.17;0.40;;;;;;;;;;20890443;28;20272;-71
2023/08/06 15:18:26;;;;;;;0.93;0.50;;;;;;;;;;20908196;28;20646;-72
2023/08/06 15:28:28;;;;;;;0.20;0.20;;;;;;;;;;20913441;28;20598;-70
2023/08/06 15:38:29;;;;;;;0.20;0.20;;;;;;;;;;20897953;28;20881;-71
2023/08/06 15:48:31;;;;;;;0.20;0.20;;;;;;;;;;20887172;28;20222;-72
2023/08/06 15:58:33;;;;;;;0.20;0.20;;;;;;;;;;20904885;28;20597;-73
2023/08/06 16:08:34;;;;;;;0.73;0.30;;;;;;;;;;20886612;28;20218;-74
2023/08/06 16:18:36;;;;;;;0.73;0.20;;;;;;;;;;20854771;28;20560;-72
2023/08/06 16:28:37;;;;;;;0.20;0.20;;;;;;;;;;20827179;28;20242;-71
2023/08/06 16:38:39;;;;;;;0.47;0.30;;;;;;;;;;20827688;28;20686;-72
2023/08/06 16:48:42;;;;;;;0.20;0.20;;;;;;;;;;20874982;28;20282;-72
2023/08/06 16:58:44;;;;;;;0.37;0.30;;;;;;;;;;20881936;28;20226;-72
2023/08/06 17:08:46;;;;;;;0.40;0.23;;;;;;;;;;20870585;28;20272;-75
2023/08/06 17:18:48;;;;;;;0.43;0.20;;;;;;;;;;20880281;28;20572;-74
2023/08/06 17:28:49;;;;;;;0.50;0.40;;;;;;;;;;20897611;28;20222;-75
2023/08/06 17:38:52;;;;;;;0.20;0.20;;;;;;;;;;20887688;28;20230;-75
2023/08/06 17:48:55;;;;;;;0.27;0.27;;;;;;;;;;20895844;28;20241;-74
2023/08/06 17:58:57;;;;;;;0.20;0.20;;;;;;;;;;20877048;28;20225;-75
2023/08/06 18:08:59;;;;;;;0.60;0.33;;;;;;;;;;20871579;28;20865;-74
2023/08/06 18:19:00;;;;;;;0.40;0.30;;;;;;;;;;20896495;28;20214;-72
2023/08/06 18:29:02;;;;;;;0.83;0.30;;;;;;;;;;20886354;28;20252;-71
2023/08/06 18:39:04;;;;;;;0.97;0.30;;;;;;;;;;20852004;28;20294;-73
2023/08/06 18:49:06;;;;;;;0.40;0.30;;;;;;;;;;20866876;28;20210;-72
2023/08/06 18:59:07;;;;;;;0.50;0.30;;;;;;;;;;20843791;28;20222;-72
2023/08/06 19:09:09;;;;;;;1.40;0.57;;;;;;;;;;20840070;28;20253;-73
2023/08/06 19:19:11;;;;;;;0.57;0.30;;;;;;;;;;20860556;28;20222;-72
2023/08/06 19:29:12;;;;;;;0.20;0.20;;;;;;;;;;20903175;28;20209;-72
2023/08/06 19:39:14;;;;;;;0.30;0.30;;;;;;;;;;20895104;22;20287;-72
2023/08/06 19:49:16;;;;;;;0.40;0.30;;;;;;;;;;20934564;28;20213;-73
2023/08/06 19:59:22;;;;;;;0.30;0.30;;;;;;;;;;20933806;28;20233;-72
2023/08/06 20:09:24;;;;;;;0.20;0.20;;;;;;;;;;20917735;28;20256;-72
2023/08/06 20:19:25;;;;;;;0.33;0.20;;;;;;;;;;20932326;28;20234;-74
2023/08/06 20:29:27;;;;;;;0.27;0.27;;;;;;;;;;20915807;28;20229;-72
2023/08/06 20:39:30;;;;;;;0.40;0.37;;;;;;;;;;20950111;28;20228;-72
2023/08/06 20:49:32;;;;;;;0.53;0.30;;;;;;;;;;20947987;28;20449;-72
2023/08/06 20:59:34;;;;;;;0.40;0.30;;;;;;;;;;20931867;28;20244;-72
2023/08/06 21:09:35;;;;;;;0.40;0.30;;;;;;;;;;20901222;28;20282;-72
2023/08/06 21:19:37;;;;;;;1.03;0.33;;;;;;;;;;20913366;28;20225;-73
2023/08/06 21:29:41;;;;;;;0.77;0.40;;;;;;;;;;20891265;28;20222;-73
2023/08/06 21:39:43;;;;;;;1.30;0.37;;;;;;;;;;20917348;28;20233;-72
2023/08/06 21:49:44;;;;;;;1.60;0.60;;;;;;;;;;20929326;28;20760;-74
2023/08/06 21:59:46;;;;;;;0.30;0.30;;;;;;;;;;20915309;28;20353;-73
2023/08/06 22:09:48;;;;;;;1.17;0.40;;;;;;;;;;20893851;28;20217;-73
2023/08/06 22:19:50;;;;;;;0.63;0.40;;;;;;;;;;20890261;28;20233;-73
2023/08/06 22:29:52;;;;;;;0.57;0.40;;;;;;;;;;20930507;28;20216;-72
2023/08/06 22:39:58;;;;;;;1.87;0.43;;;;;;;;;;20919984;28;20225;-72
2023/08/06 22:49:59;;;;;;;1.20;0.40;;;;;;;;;;20929192;28;20213;-72
2023/08/06 23:00:03;;;;;;;1.03;0.53;;;;;;;;;;20952261;28;20585;-73
2023/08/06 23:10:07;;;;;;;1.53;0.40;;;;;;;;;;20944333;28;20209;-72
2023/08/06 23:20:09;;;;;;;1.10;0.50;;;;;;;;;;20927079;28;20225;-72
2023/08/06 23:30:11;;;;;;;1.27;0.60;;;;;;;;;;20926494;28;20589;-72
2023/08/06 23:40:13;;;;;;;1.17;0.50;;;;;;;;;;20922256;28;20282;-73
2023/08/06 23:50:15;;;;;;;0.80;0.50;;;;;;;;;;20898413;28;20217;-73
